Weather at Ouyen Airport

Public forecast

Using degrees Celsius for public forecast. Weather courtesy of forecast.io.

Closest aviation weather report (METAR) to Ouyen Airport

Closest report is Mildura Airport, 53.3 nm (98.7 km) NNW. Retrieved 2020/12/02 17:00 UTC (9 minutes ago):

YMIA 021700Z AUTO 21005KT 9999 // NCD 13/00 Q1020

Closest aviation forecast (TAF) to Ouyen Airport

Closest forecast is Adelaide International Airport, 188.2 nm (348.5 km) W. Retrieved 2020/12/02 15:36 UTC (2 hours ago):

TAF YPAD 021403Z 0215/0318 12007KT CAVOK FM022100 04006KT CAVOK FM030000 33007KT CAVOK FM030200 24012KT CAVOK FM031100 14008KT CAVOK